Time;durP1;ratioP1;P1;durP2;ratioP2;P2;SDS_P1;SDS_P2;PMS_P1;PMS_P2;Temp;Humidity;BMP_temperature;BMP_pressure;BME280_temperature;BME280_humidity;BME280_pressure;Samples;Min_cycle;Max_cycle;Signal;HPM_P1;HPM_P2
2023/04/06 00:00:08;;;;;;;30.70;16.17;;;;;;;;;;4800085;29;20042;-79
2023/04/06 00:02:55;;;;;;;29.52;15.93;;;;;;;;;;4819502;29;20062;-80
2023/04/06 00:05:40;;;;;;;34.38;15.73;;;;;;;;;;4813374;29;20047;-80
2023/04/06 00:08:26;;;;;;;29.35;15.65;;;;;;;;;;4813277;29;20050;-79
2023/04/06 00:11:11;;;;;;;28.20;15.50;;;;;;;;;;4812813;29;20684;-78
2023/04/06 00:13:57;;;;;;;28.85;16.45;;;;;;;;;;4814031;29;20042;-81
2023/04/06 00:16:42;;;;;;;32.55;15.52;;;;;;;;;;4813214;29;20051;-79
2023/04/06 00:19:28;;;;;;;26.50;15.27;;;;;;;;;;4804809;29;20050;-80
2023/04/06 00:22:13;;;;;;;26.10;16.10;;;;;;;;;;4813301;29;20046;-80
2023/04/06 00:24:59;;;;;;;28.90;15.73;;;;;;;;;;4813217;29;20484;-80
2023/04/06 00:27:44;;;;;;;33.45;17.23;;;;;;;;;;4813270;29;20042;-79
2023/04/06 00:30:30;;;;;;;34.05;16.92;;;;;;;;;;4798936;29;20046;-80
2023/04/06 00:33:16;;;;;;;26.77;15.95;;;;;;;;;;4813517;29;20050;-81
2023/04/06 00:36:01;;;;;;;26.63;15.82;;;;;;;;;;4813526;29;20493;-80
2023/04/06 00:38:46;;;;;;;34.40;18.15;;;;;;;;;;4812272;29;20054;-80
2023/04/06 00:41:31;;;;;;;30.17;16.45;;;;;;;;;;4805156;29;20046;-80
2023/04/06 00:44:17;;;;;;;31.80;16.40;;;;;;;;;;4812653;29;20051;-80
2023/04/06 00:47:03;;;;;;;36.72;16.98;;;;;;;;;;4813100;29;20055;-80
2023/04/06 00:49:48;;;;;;;27.13;15.75;;;;;;;;;;4813328;29;20058;-81
2023/04/06 00:52:35;;;;;;;32.55;16.98;;;;;;;;;;4813771;29;20062;-81
2023/04/06 00:55:21;;;;;;;26.27;14.88;;;;;;;;;;4805152;29;20054;-81
2023/04/06 00:58:07;;;;;;;27.42;14.18;;;;;;;;;;4805238;29;20058;-80
2023/04/06 01:01:01;;;;;;;23.80;13.50;;;;;;;;;;4805829;29;20054;-81
2023/04/06 01:03:49;;;;;;;29.77;15.18;;;;;;;;;;4808511;29;20046;-80
2023/04/06 01:06:36;;;;;;;25.13;13.93;;;;;;;;;;4809990;29;20050;-80
2023/04/06 01:09:22;;;;;;;24.80;14.75;;;;;;;;;;4802727;29;20051;-80
2023/04/06 01:12:11;;;;;;;23.00;13.88;;;;;;;;;;4809531;29;20058;-80
2023/04/06 01:14:56;;;;;;;27.45;13.60;;;;;;;;;;4816774;29;20055;-80
2023/04/06 01:17:42;;;;;;;20.40;12.32;;;;;;;;;;4809062;29;20059;-80
2023/04/06 01:20:32;;;;;;;22.40;13.23;;;;;;;;;;4808201;29;20046;-80
2023/04/06 01:23:24;;;;;;;18.52;12.05;;;;;;;;;;4803711;29;20055;-80
2023/04/06 01:26:09;;;;;;;22.48;12.73;;;;;;;;;;4810324;29;20413;-80
2023/04/06 01:28:56;;;;;;;21.00;12.63;;;;;;;;;;4804087;29;20042;-81
2023/04/06 01:31:47;;;;;;;19.15;12.38;;;;;;;;;;4803801;29;20408;-81
2023/04/06 01:34:33;;;;;;;22.80;13.48;;;;;;;;;;4791882;29;20043;-80
2023/04/06 01:37:22;;;;;;;28.77;14.27;;;;;;;;;;4796592;29;20054;-80
2023/04/06 01:40:09;;;;;;;32.08;14.88;;;;;;;;;;4802983;29;20046;-80
2023/04/06 01:43:06;;;;;;;33.90;14.95;;;;;;;;;;4804089;29;20043;-81
2023/04/06 01:46:04;;;;;;;26.65;14.93;;;;;;;;;;4801725;29;20512;-80
2023/04/06 01:48:53;;;;;;;39.97;19.48;;;;;;;;;;4803815;29;20039;-80
2023/04/06 01:51:52;;;;;;;;;;;;;;;;;;4803165;29;20061;-81
2023/04/06 01:54:37;;;;;;;26.02;13.35;;;;;;;;;;4796727;29;19921;-81
2023/04/06 01:57:29;;;;;;;21.15;12.50;;;;;;;;;;4803380;29;21538;-80
2023/04/06 02:00:24;;;;;;;30.02;14.90;;;;;;;;;;4801936;29;20039;-81
2023/04/06 02:03:14;;;;;;;29.65;15.10;;;;;;;;;;4809677;29;20047;-82
2023/04/06 02:06:00;;;;;;;25.85;13.60;;;;;;;;;;4803074;29;20404;-82
2023/04/06 02:08:51;;;;;;;23.60;13.82;;;;;;;;;;4790081;29;20418;-81
2023/04/06 02:11:37;;;;;;;28.88;14.95;;;;;;;;;;4799875;29;20468;-81
2023/04/06 02:14:29;;;;;;;28.63;13.20;;;;;;;;;;4806896;29;20489;-81
2023/04/06 02:17:17;;;;;;;30.02;17.40;;;;;;;;;;4800981;29;20058;-81
2023/04/06 02:20:03;;;;;;;22.13;13.18;;;;;;;;;;4807759;29;20500;-80
2023/04/06 02:22:48;;;;;;;21.58;11.65;;;;;;;;;;4801504;29;20043;-82
2023/04/06 02:25:34;;;;;;;24.58;12.43;;;;;;;;;;4807217;29;20051;-80
2023/04/06 02:28:19;;;;;;;16.73;11.13;;;;;;;;;;4803678;29;20065;-80
2023/04/06 02:31:05;;;;;;;25.52;12.52;;;;;;;;;;4811917;29;20050;-81
2023/04/06 02:33:50;;;;;;;23.35;12.20;;;;;;;;;;4810431;29;20054;-82
2023/04/06 02:36:36;;;;;;;21.02;12.20;;;;;;;;;;4805959;29;20051;-81
2023/04/06 02:39:20;;;;;;;22.25;10.85;;;;;;;;;;4804136;29;20416;-81
2023/04/06 02:42:05;;;;;;;19.38;12.10;;;;;;;;;;4811380;29;20054;-81
2023/04/06 02:44:50;;;;;;;22.27;12.73;;;;;;;;;;4812977;29;20062;-81
2023/04/06 02:47:36;;;;;;;20.67;12.52;;;;;;;;;;4803481;29;20054;-80
2023/04/06 02:50:22;;;;;;;26.90;13.10;;;;;;;;;;4803334;29;20062;-81
2023/04/06 02:53:16;;;;;;;21.55;12.48;;;;;;;;;;4803892;29;20058;-81
2023/04/06 02:56:02;;;;;;;24.13;13.02;;;;;;;;;;4812186;29;20051;-80
2023/04/06 02:58:59;;;;;;;22.00;11.25;;;;;;;;;;4803553;29;20051;-79
2023/04/06 03:01:47;;;;;;;21.70;11.38;;;;;;;;;;4798861;29;20063;-81
2023/04/06 03:04:33;;;;;;;19.88;11.45;;;;;;;;;;4805163;29;20800;-79
2023/04/06 03:07:19;;;;;;;18.90;11.55;;;;;;;;;;4802557;29;20051;-79
2023/04/06 03:10:05;;;;;;;21.48;11.82;;;;;;;;;;4805178;29;20047;-80
2023/04/06 03:12:52;;;;;;;22.45;11.75;;;;;;;;;;4802853;29;20058;-80
2023/04/06 03:15:56;;;;;;;20.70;11.70;;;;;;;;;;4810141;29;20066;-80
2023/04/06 03:18:41;;;;;;;24.63;11.60;;;;;;;;;;4805130;29;20054;-81
2023/04/06 03:21:26;;;;;;;22.52;12.20;;;;;;;;;;4810193;29;20051;-81
2023/04/06 03:24:13;;;;;;;21.05;12.57;;;;;;;;;;4810108;29;20050;-81
2023/04/06 03:27:00;;;;;;;21.10;12.00;;;;;;;;;;4811610;29;20050;-81
2023/04/06 03:29:46;;;;;;;27.20;14.68;;;;;;;;;;4803201;29;20408;-81
2023/04/06 03:32:36;;;;;;;28.33;15.38;;;;;;;;;;4803763;29;20046;-80
2023/04/06 03:35:21;;;;;;;42.53;19.60;;;;;;;;;;4811669;29;20054;-81
2023/04/06 03:38:07;;;;;;;35.85;18.73;;;;;;;;;;4802418;29;20047;-82
2023/04/06 03:40:51;;;;;;;26.80;15.23;;;;;;;;;;4810717;29;20504;-81
2023/04/06 03:43:41;;;;;;;31.75;15.88;;;;;;;;;;4802304;29;20059;-79
2023/04/06 03:46:27;;;;;;;37.33;17.40;;;;;;;;;;4804713;29;20074;-81
2023/04/06 03:49:15;;;;;;;26.75;13.57;;;;;;;;;;4802561;29;20051;-81
2023/04/06 03:52:04;;;;;;;27.50;14.55;;;;;;;;;;4802290;29;20047;-81
2023/04/06 03:54:49;;;;;;;29.42;16.80;;;;;;;;;;4809282;29;20058;-81
2023/04/06 03:57:35;;;;;;;40.17;17.80;;;;;;;;;;4802311;29;20058;-81
2023/04/06 04:00:20;;;;;;;22.67;11.50;;;;;;;;;;4800695;29;20055;-80
2023/04/06 04:03:05;;;;;;;31.35;15.45;;;;;;;;;;4809768;29;20046;-82
2023/04/06 04:05:51;;;;;;;34.08;13.75;;;;;;;;;;4808926;29;20043;-81
2023/04/06 04:08:36;;;;;;;28.25;12.95;;;;;;;;;;4802695;29;20540;-79
2023/04/06 04:11:22;;;;;;;33.28;12.50;;;;;;;;;;4804179;29;20059;-80
2023/04/06 04:14:13;;;;;;;23.33;13.15;;;;;;;;;;4802580;29;20054;-79
2023/04/06 04:16:58;;;;;;;24.88;11.80;;;;;;;;;;4803924;29;20294;-81
2023/04/06 04:19:43;;;;;;;31.95;14.00;;;;;;;;;;4800127;29;20054;-80
2023/04/06 04:22:29;;;;;;;27.90;15.27;;;;;;;;;;4804077;29;20058;-81
2023/04/06 04:25:15;;;;;;;40.40;18.95;;;;;;;;;;4801288;29;20047;-80
2023/04/06 04:28:05;;;;;;;27.30;15.48;;;;;;;;;;4804255;29;20050;-81
2023/04/06 04:30:51;;;;;;;31.65;14.75;;;;;;;;;;4799699;29;20055;-82
2023/04/06 04:33:37;;;;;;;38.67;17.67;;;;;;;;;;4808665;29;20563;-79
2023/04/06 04:36:28;;;;;;;34.58;17.00;;;;;;;;;;4801660;29;20497;-80
2023/04/06 04:39:15;;;;;;;32.90;14.98;;;;;;;;;;4801007;29;20050;-80
2023/04/06 04:42:05;;;;;;;31.92;15.38;;;;;;;;;;4800313;29;20047;-80
2023/04/06 04:44:53;;;;;;;26.45;12.80;;;;;;;;;;4804216;29;20054;-81
2023/04/06 04:47:50;;;;;;;32.50;15.13;;;;;;;;;;4800627;29;20058;-80
2023/04/06 04:50:38;;;;;;;26.67;13.23;;;;;;;;;;4801928;29;20058;-80
2023/04/06 04:53:24;;;;;;;35.78;16.10;;;;;;;;;;4802641;29;20070;-79
2023/04/06 04:56:12;;;;;;;27.83;15.07;;;;;;;;;;4801187;29;20055;-80
2023/04/06 04:58:57;;;;;;;36.42;16.50;;;;;;;;;;4802492;29;20054;-79
2023/04/06 05:01:44;;;;;;;19.20;9.88;;;;;;;;;;4801030;29;20476;-80
2023/04/06 05:04:30;;;;;;;35.22;14.57;;;;;;;;;;4808754;29;21153;-79
2023/04/06 05:07:20;;;;;;;16.20;8.73;;;;;;;;;;4802929;29;20051;-80
2023/04/06 05:10:05;;;;;;;15.07;8.65;;;;;;;;;;4808125;29;20042;-80
2023/04/06 05:12:57;;;;;;;24.80;12.52;;;;;;;;;;4809247;29;21382;-81
2023/04/06 05:15:42;;;;;;;32.08;17.02;;;;;;;;;;4803294;29;20050;-80
2023/04/06 05:18:39;;;;;;;87.57;33.88;;;;;;;;;;4801160;29;20489;-81
2023/04/06 05:21:27;;;;;;;42.97;20.95;;;;;;;;;;4801665;29;20058;-80
2023/04/06 05:24:20;;;;;;;47.92;19.90;;;;;;;;;;4802901;29;20050;-80
2023/04/06 05:27:07;;;;;;;47.97;21.77;;;;;;;;;;4778628;29;20902;-80
2023/04/06 05:29:52;;;;;;;50.58;22.85;;;;;;;;;;4783756;30;20055;-81
2023/04/06 05:32:37;;;;;;;39.58;21.80;;;;;;;;;;4779611;29;20067;-80
2023/04/06 05:35:23;;;;;;;35.53;19.48;;;;;;;;;;4781784;29;20055;-80
2023/04/06 05:38:13;;;;;;;43.35;21.23;;;;;;;;;;4767762;29;20055;-80
2023/04/06 05:40:58;;;;;;;27.60;11.80;;;;;;;;;;4783776;30;20405;-81
2023/04/06 05:43:48;;;;;;;24.90;13.85;;;;;;;;;;4779189;29;20047;-80
2023/04/06 05:46:33;;;;;;;13.38;8.10;;;;;;;;;;4780937;30;20059;-80
2023/04/06 05:49:19;;;;;;;39.67;19.80;;;;;;;;;;4781101;29;20505;-80
2023/04/06 05:52:05;;;;;;;41.67;21.02;;;;;;;;;;4781415;30;20047;-80
2023/04/06 05:54:52;;;;;;;23.15;11.75;;;;;;;;;;4779859;29;20505;-80
2023/04/06 05:57:37;;;;;;;32.53;16.85;;;;;;;;;;4783040;30;20055;-80
2023/04/06 06:00:22;;;;;;;44.05;20.88;;;;;;;;;;4778324;29;20055;-79
2023/04/06 06:03:19;;;;;;;16.58;8.43;;;;;;;;;;4776395;29;20055;-80
2023/04/06 06:06:10;;;;;;;33.60;16.75;;;;;;;;;;4778343;29;20422;-81
2023/04/06 06:09:06;;;;;;;49.42;21.55;;;;;;;;;;4782127;29;20063;-78
2023/04/06 06:11:56;;;;;;;43.95;20.33;;;;;;;;;;4782858;29;20047;-77
2023/04/06 06:14:44;;;;;;;43.33;20.30;;;;;;;;;;4780125;29;20059;-77
2023/04/06 06:17:30;;;;;;;47.63;24.42;;;;;;;;;;4780118;29;20417;-81
2023/04/06 06:20:16;;;;;;;30.55;19.15;;;;;;;;;;4781138;30;20059;-79
2023/04/06 06:23:02;;;;;;;54.10;28.10;;;;;;;;;;4770526;30;20059;-78
2023/04/06 06:25:49;;;;;;;53.97;24.83;;;;;;;;;;4784721;29;20059;-78
2023/04/06 06:28:36;;;;;;;33.30;19.10;;;;;;;;;;4802062;29;20047;-79
2023/04/06 06:31:22;;;;;;;31.88;18.00;;;;;;;;;;4803770;29;20054;-78
2023/04/06 06:34:07;;;;;;;34.55;19.20;;;;;;;;;;4802479;29;20051;-77
2023/04/06 06:36:55;;;;;;;33.08;17.98;;;;;;;;;;4801283;29;20043;-78
2023/04/06 06:39:40;;;;;;;24.10;11.18;;;;;;;;;;4801894;29;20059;-79
2023/04/06 06:42:26;;;;;;;19.55;8.77;;;;;;;;;;4803772;29;20043;-81
2023/04/06 06:45:29;;;;;;;27.67;15.07;;;;;;;;;;4801840;29;20055;-81
2023/04/06 06:48:14;;;;;;;23.98;14.00;;;;;;;;;;4809982;29;20059;-78
2023/04/06 06:51:00;;;;;;;22.58;13.55;;;;;;;;;;4793273;29;20046;-79
2023/04/06 06:53:45;;;;;;;36.70;18.52;;;;;;;;;;4803257;29;20059;-79
2023/04/06 06:56:30;;;;;;;30.75;17.38;;;;;;;;;;4802506;29;20401;-79
2023/04/06 06:59:16;;;;;;;20.75;13.07;;;;;;;;;;4801580;29;20047;-78
2023/04/06 07:02:01;;;;;;;21.85;13.38;;;;;;;;;;4801853;29;20042;-79
2023/04/06 07:04:50;;;;;;;37.78;16.95;;;;;;;;;;4810326;29;20050;-79
2023/04/06 07:07:35;;;;;;;22.13;13.05;;;;;;;;;;4801820;29;20059;-80
2023/04/06 07:10:20;;;;;;;23.85;13.60;;;;;;;;;;4808395;29;20055;-79
2023/04/06 07:13:06;;;;;;;24.45;14.60;;;;;;;;;;4803933;29;20046;-80
2023/04/06 07:15:51;;;;;;;20.48;7.65;;;;;;;;;;4810978;29;20401;-79
2023/04/06 07:18:37;;;;;;;18.02;12.43;;;;;;;;;;4812137;29;20055;-78
2023/04/06 07:21:23;;;;;;;19.60;12.02;;;;;;;;;;4804800;29;20063;-79
2023/04/06 07:24:09;;;;;;;23.58;12.75;;;;;;;;;;4804353;29;20438;-78
2023/04/06 07:26:56;;;;;;;36.00;19.88;;;;;;;;;;4807265;29;20051;-80
2023/04/06 07:29:41;;;;;;;42.13;22.35;;;;;;;;;;4801833;29;20428;-79
2023/04/06 07:32:27;;;;;;;24.90;15.30;;;;;;;;;;4801052;29;20054;-79
2023/04/06 07:35:12;;;;;;;11.38;6.63;;;;;;;;;;4802215;29;20047;-77
2023/04/06 07:37:58;;;;;;;21.20;11.48;;;;;;;;;;4803975;29;20059;-80
2023/04/06 07:40:43;;;;;;;24.25;12.90;;;;;;;;;;4800721;29;20051;-79
2023/04/06 07:43:30;;;;;;;26.60;13.40;;;;;;;;;;4802050;29;20058;-78
2023/04/06 07:46:15;;;;;;;12.10;6.00;;;;;;;;;;4801386;29;20050;-79
2023/04/06 07:49:02;;;;;;;15.05;9.65;;;;;;;;;;4804012;29;20441;-78
2023/04/06 07:51:50;;;;;;;20.42;11.10;;;;;;;;;;4800046;29;20399;-76
2023/04/06 07:54:35;;;;;;;24.35;10.20;;;;;;;;;;4802346;29;20051;-78
2023/04/06 07:57:20;;;;;;;20.73;11.88;;;;;;;;;;4803762;29;20067;-77
2023/04/06 08:00:06;;;;;;;34.15;15.77;;;;;;;;;;4802316;29;20058;-78
2023/04/06 08:02:57;;;;;;;28.23;12.65;;;;;;;;;;4802176;29;20425;-77
2023/04/06 08:05:43;;;;;;;17.45;9.77;;;;;;;;;;4803041;29;20042;-79
2023/04/06 08:08:29;;;;;;;38.78;17.80;;;;;;;;;;4796453;29;20043;-82
2023/04/06 08:11:26;;;;;;;9.23;6.13;;;;;;;;;;4800956;29;20055;-78
2023/04/06 08:14:20;;;;;;;14.93;9.60;;;;;;;;;;4802870;29;20047;-79
2023/04/06 08:17:10;;;;;;;25.50;13.23;;;;;;;;;;4801575;29;20047;-79
2023/04/06 08:19:56;;;;;;;13.68;8.02;;;;;;;;;;4803273;29;20043;-79
2023/04/06 08:22:41;;;;;;;14.25;8.40;;;;;;;;;;4803350;29;20051;-80
2023/04/06 08:25:27;;;;;;;24.02;13.00;;;;;;;;;;4802509;29;20047;-78
2023/04/06 08:28:12;;;;;;;18.20;10.45;;;;;;;;;;4803778;29;20051;-78
2023/04/06 08:30:58;;;;;;;21.67;10.25;;;;;;;;;;4803584;29;20047;-79
2023/04/06 08:33:44;;;;;;;22.27;12.65;;;;;;;;;;4802691;29;20054;-79
2023/04/06 08:36:30;;;;;;;23.85;11.80;;;;;;;;;;4803649;29;20051;-78
2023/04/06 08:39:16;;;;;;;17.05;9.45;;;;;;;;;;4802950;29;20063;-80
2023/04/06 08:42:02;;;;;;;17.73;9.35;;;;;;;;;;4802407;29;20497;-78
2023/04/06 08:44:52;;;;;;;36.10;15.05;;;;;;;;;;4803067;29;20063;-78
2023/04/06 08:47:37;;;;;;;26.63;11.93;;;;;;;;;;4802219;29;20047;-81
2023/04/06 08:50:24;;;;;;;20.10;11.27;;;;;;;;;;4803347;29;20047;-78
2023/04/06 08:53:11;;;;;;;19.33;10.00;;;;;;;;;;4803277;29;20047;-78
2023/04/06 08:55:59;;;;;;;18.33;9.15;;;;;;;;;;4802885;29;20059;-79
2023/04/06 08:58:44;;;;;;;18.33;10.00;;;;;;;;;;4803082;29;20054;-79
2023/04/06 09:01:32;;;;;;;12.98;8.38;;;;;;;;;;4802837;29;20066;-79
2023/04/06 09:04:18;;;;;;;15.88;10.20;;;;;;;;;;4803431;29;20058;-82
2023/04/06 09:07:04;;;;;;;14.25;7.97;;;;;;;;;;4802865;29;20409;-79
2023/04/06 09:09:49;;;;;;;16.13;9.18;;;;;;;;;;4793878;29;20054;-79
2023/04/06 09:12:35;;;;;;;14.07;8.60;;;;;;;;;;4802307;29;20051;-78
2023/04/06 09:15:21;;;;;;;12.15;8.45;;;;;;;;;;4802054;29;20051;-79
2023/04/06 09:18:06;;;;;;;18.42;9.55;;;;;;;;;;4802922;29;20050;-79
2023/04/06 09:21:03;;;;;;;17.67;8.77;;;;;;;;;;4802698;29;20496;-79
2023/04/06 09:23:58;;;;;;;16.73;9.88;;;;;;;;;;4802587;29;20047;-79
2023/04/06 09:26:46;;;;;;;14.63;9.48;;;;;;;;;;4808636;29;20050;-79
2023/04/06 09:29:33;;;;;;;15.93;10.40;;;;;;;;;;4810835;29;20042;-77
2023/04/06 09:32:18;;;;;;;41.88;16.98;;;;;;;;;;4811233;29;20055;-77
2023/04/06 09:35:08;;;;;;;25.88;12.18;;;;;;;;;;4811552;29;20039;-78
2023/04/06 09:37:55;;;;;;;19.52;12.10;;;;;;;;;;4803754;29;20051;-79
2023/04/06 09:40:51;;;;;;;22.45;11.15;;;;;;;;;;4810944;29;20396;-80
2023/04/06 09:43:37;;;;;;;22.83;10.90;;;;;;;;;;4810764;29;20039;-78
2023/04/06 09:46:22;;;;;;;31.00;14.95;;;;;;;;;;4811745;29;20062;-77
2023/04/06 09:49:10;;;;;;;31.65;17.35;;;;;;;;;;4810890;29;20489;-80
2023/04/06 09:51:59;;;;;;;18.25;9.90;;;;;;;;;;4810725;29;20050;-79
2023/04/06 09:54:49;;;;;;;61.80;23.52;;;;;;;;;;4810543;29;20114;-80
2023/04/06 09:57:44;;;;;;;42.83;15.93;;;;;;;;;;4810555;29;20054;-80
2023/04/06 10:00:34;;;;;;;44.13;15.27;;;;;;;;;;4811518;29;20294;-78
2023/04/06 10:03:38;;;;;;;20.27;11.85;;;;;;;;;;4810971;29;20042;-79
2023/04/06 10:06:28;;;;;;;22.13;11.55;;;;;;;;;;4810955;29;20442;-80
2023/04/06 10:09:14;;;;;;;9.70;5.80;;;;;;;;;;4810466;29;20039;-77
2023/04/06 10:12:07;;;;;;;20.67;10.25;;;;;;;;;;4810394;29;20047;-79
2023/04/06 10:14:54;;;;;;;10.85;5.88;;;;;;;;;;4810492;29;20528;-80
2023/04/06 10:17:39;;;;;;;11.98;5.88;;;;;;;;;;4811410;29;20042;-78
2023/04/06 10:20:48;;;;;;;10.13;5.85;;;;;;;;;;4804350;29;20046;-78
2023/04/06 10:23:36;;;;;;;17.42;7.28;;;;;;;;;;4810769;29;20043;-78
2023/04/06 10:26:21;;;;;;;14.48;9.40;;;;;;;;;;4805987;29;20469;-77
2023/04/06 10:29:06;;;;;;;14.73;7.82;;;;;;;;;;4801259;29;20051;-79
2023/04/06 10:31:52;;;;;;;19.27;8.27;;;;;;;;;;4801832;29;20426;-78
2023/04/06 10:34:37;;;;;;;9.70;5.93;;;;;;;;;;4800158;29;20051;-77
2023/04/06 10:37:23;;;;;;;30.38;9.07;;;;;;;;;;4801598;29;20413;-79
2023/04/06 10:40:27;;;;;;;16.60;9.60;;;;;;;;;;4801228;29;20063;-77
2023/04/06 10:43:22;;;;;;;14.30;8.40;;;;;;;;;;4801857;29;20046;-79
2023/04/06 10:46:10;;;;;;;12.07;6.78;;;;;;;;;;4801577;29;20043;-80
2023/04/06 10:48:56;;;;;;;21.85;9.65;;;;;;;;;;4802721;29;20055;-79
2023/04/06 10:51:42;;;;;;;17.08;10.13;;;;;;;;;;4805117;29;20046;-78
2023/04/06 10:54:28;;;;;;;17.92;9.73;;;;;;;;;;4804801;29;20059;-81
2023/04/06 10:57:13;;;;;;;15.68;8.90;;;;;;;;;;4805107;29;20054;-79
2023/04/06 10:59:59;;;;;;;7.80;4.13;;;;;;;;;;4804532;29;20058;-77
2023/04/06 11:02:46;;;;;;;9.02;6.10;;;;;;;;;;4805206;29;20051;-77
2023/04/06 11:05:31;;;;;;;23.42;11.57;;;;;;;;;;4805169;29;20050;-79
2023/04/06 11:08:24;;;;;;;45.80;16.73;;;;;;;;;;4804742;29;20043;-80
2023/04/06 11:11:15;;;;;;;145.02;48.60;;;;;;;;;;4804988;29;20076;-78
2023/04/06 11:14:01;;;;;;;12.63;7.35;;;;;;;;;;4804568;29;20050;-81
2023/04/06 11:16:50;;;;;;;41.65;17.48;;;;;;;;;;4803785;29;20043;-79
2023/04/06 11:19:36;;;;;;;32.67;14.38;;;;;;;;;;4804594;29;20066;-78
2023/04/06 11:22:21;;;;;;;19.85;10.13;;;;;;;;;;4804674;29;20051;-77
2023/04/06 11:25:08;;;;;;;22.48;11.25;;;;;;;;;;4804252;29;20043;-81
2023/04/06 11:27:53;;;;;;;26.77;12.88;;;;;;;;;;4804819;29;20409;-78
2023/04/06 11:30:39;;;;;;;47.08;13.80;;;;;;;;;;4804437;29;20039;-77
2023/04/06 11:33:24;;;;;;;30.05;13.48;;;;;;;;;;4804626;29;20039;-78
2023/04/06 11:36:10;;;;;;;14.07;7.70;;;;;;;;;;4804674;29;20055;-79
2023/04/06 11:38:56;;;;;;;25.75;13.25;;;;;;;;;;4804019;29;20047;-78
2023/04/06 11:41:46;;;;;;;20.77;9.52;;;;;;;;;;4803646;29;20051;-78
2023/04/06 11:44:40;;;;;;;15.80;9.35;;;;;;;;;;4804268;29;20043;-78
2023/04/06 11:47:33;;;;;;;47.65;18.42;;;;;;;;;;4804180;29;20050;-78
2023/04/06 11:50:17;;;;;;;22.75;11.40;;;;;;;;;;4803666;29;20059;-79
2023/04/06 11:53:02;;;;;;;23.48;10.70;;;;;;;;;;4802579;29;20438;-78
2023/04/06 11:55:48;;;;;;;16.50;10.10;;;;;;;;;;4804339;29;20043;-78
2023/04/06 11:58:34;;;;;;;12.50;7.47;;;;;;;;;;4803887;29;20501;-78
2023/04/06 12:01:19;;;;;;;13.88;8.52;;;;;;;;;;4803232;29;20042;-78
2023/04/06 12:04:05;;;;;;;10.60;5.18;;;;;;;;;;4803483;29;20055;-79
2023/04/06 12:06:51;;;;;;;11.40;7.45;;;;;;;;;;4803768;29;20046;-78
2023/04/06 12:09:36;;;;;;;30.13;16.50;;;;;;;;;;4803900;29;20043;-80
2023/04/06 12:12:22;;;;;;;7.57;3.97;;;;;;;;;;4803054;29;20424;-80
2023/04/06 12:15:07;;;;;;;16.58;9.95;;;;;;;;;;4802765;29;20493;-80
2023/04/06 12:17:53;;;;;;;20.92;6.65;;;;;;;;;;4803169;29;20039;-79
2023/04/06 12:20:39;;;;;;;15.85;8.57;;;;;;;;;;4803468;29;20050;-78
2023/04/06 12:23:24;;;;;;;16.80;8.93;;;;;;;;;;4803133;29;20042;-80
2023/04/06 12:26:10;;;;;;;33.05;14.02;;;;;;;;;;4807057;29;20050;-78
2023/04/06 12:28:55;;;;;;;7.55;4.28;;;;;;;;;;4810995;29;20408;-79
2023/04/06 12:31:42;;;;;;;13.48;6.30;;;;;;;;;;4812236;29;20051;-80
2023/04/06 12:34:27;;;;;;;15.20;9.02;;;;;;;;;;4811827;29;20055;-78
2023/04/06 12:37:12;;;;;;;10.77;6.22;;;;;;;;;;4813345;29;20051;-79
2023/04/06 12:39:58;;;;;;;18.33;9.98;;;;;;;;;;4800347;29;20054;-79
2023/04/06 12:42:43;;;;;;;13.93;6.93;;;;;;;;;;4813889;29;20055;-78
2023/04/06 12:45:30;;;;;;;12.48;6.32;;;;;;;;;;4801735;29;20042;-78
2023/04/06 12:48:15;;;;;;;23.92;10.18;;;;;;;;;;4813576;29;20050;-79
2023/04/06 12:51:02;;;;;;;6.50;4.50;;;;;;;;;;4814089;29;20046;-77
2023/04/06 12:53:47;;;;;;;20.27;11.05;;;;;;;;;;4801049;29;20042;-78
2023/04/06 12:56:33;;;;;;;16.75;8.43;;;;;;;;;;4806137;29;20050;-78
2023/04/06 12:59:18;;;;;;;12.63;6.80;;;;;;;;;;4810863;29;20492;-78
2023/04/06 13:02:04;;;;;;;6.57;3.67;;;;;;;;;;4812416;29;20397;-78
2023/04/06 13:04:50;;;;;;;7.05;4.35;;;;;;;;;;4811459;29;20093;-80
2023/04/06 13:07:35;;;;;;;10.95;6.70;;;;;;;;;;4809444;29;20059;-77
2023/04/06 13:10:21;;;;;;;8.90;6.30;;;;;;;;;;4807728;29;20724;-78
2023/04/06 13:13:07;;;;;;;8.40;5.70;;;;;;;;;;4808451;29;20050;-78
2023/04/06 13:16:00;;;;;;;6.45;4.35;;;;;;;;;;4811644;29;20043;-79
2023/04/06 13:18:46;;;;;;;12.55;6.85;;;;;;;;;;4811126;29;20063;-79
2023/04/06 13:21:31;;;;;;;10.63;6.32;;;;;;;;;;4809812;29;20051;-79
2023/04/06 13:24:17;;;;;;;8.75;5.47;;;;;;;;;;4810983;29;20046;-77
2023/04/06 13:27:03;;;;;;;19.55;8.45;;;;;;;;;;4803995;29;20051;-77
2023/04/06 13:29:48;;;;;;;25.02;10.73;;;;;;;;;;4801332;29;20046;-78
2023/04/06 13:32:34;;;;;;;11.30;6.57;;;;;;;;;;4802228;29;20058;-81
2023/04/06 13:35:19;;;;;;;20.30;11.05;;;;;;;;;;4801554;29;20493;-77
2023/04/06 13:38:05;;;;;;;8.23;5.72;;;;;;;;;;4801494;29;20485;-79
2023/04/06 13:40:51;;;;;;;27.67;11.60;;;;;;;;;;4802140;29;20055;-78
2023/04/06 13:43:36;;;;;;;17.27;8.75;;;;;;;;;;4802256;29;20050;-79
2023/04/06 13:46:23;;;;;;;31.90;13.07;;;;;;;;;;4802343;29;20047;-78
2023/04/06 13:49:09;;;;;;;17.27;10.02;;;;;;;;;;4802188;29;20417;-78
2023/04/06 13:51:54;;;;;;;21.67;7.82;;;;;;;;;;4808327;29;20485;-79
2023/04/06 13:54:39;;;;;;;22.13;9.10;;;;;;;;;;4802340;29;20498;-81
2023/04/06 13:57:25;;;;;;;16.73;9.35;;;;;;;;;;4802333;29;20051;-79
2023/04/06 14:00:12;;;;;;;15.40;8.88;;;;;;;;;;4801905;29;20047;-81
2023/04/06 14:02:57;;;;;;;14.20;8.00;;;;;;;;;;4794659;29;20047;-80
2023/04/06 14:05:42;;;;;;;13.30;8.93;;;;;;;;;;4801766;29;20420;-80
2023/04/06 14:08:27;;;;;;;12.10;6.85;;;;;;;;;;4802462;29;20404;-80
2023/04/06 14:11:13;;;;;;;13.88;9.43;;;;;;;;;;4793928;29;20042;-79
2023/04/06 14:13:59;;;;;;;7.60;4.80;;;;;;;;;;4802064;29;20051;-79
2023/04/06 14:16:44;;;;;;;10.38;4.65;;;;;;;;;;4801673;29;20046;-78
2023/04/06 14:19:29;;;;;;;10.80;6.88;;;;;;;;;;4801704;29;20055;-79
2023/04/06 14:22:15;;;;;;;13.43;7.45;;;;;;;;;;4801353;29;20050;-79
2023/04/06 14:25:01;;;;;;;20.77;9.75;;;;;;;;;;4805107;29;20085;-80
2023/04/06 14:27:46;;;;;;;18.75;10.27;;;;;;;;;;4805262;29;20051;-77
2023/04/06 14:30:32;;;;;;;30.63;12.70;;;;;;;;;;4805302;29;20051;-79
2023/04/06 14:33:17;;;;;;;10.73;5.93;;;;;;;;;;4805907;29;20055;-78
2023/04/06 14:36:03;;;;;;;4.25;3.08;;;;;;;;;;4805527;29;20047;-78
2023/04/06 14:38:49;;;;;;;7.60;4.40;;;;;;;;;;4805578;29;20058;-79
2023/04/06 14:41:35;;;;;;;12.70;7.20;;;;;;;;;;4804556;29;20063;-77
2023/04/06 14:44:21;;;;;;;4.35;3.50;;;;;;;;;;4805123;29;20050;-79
2023/04/06 14:47:06;;;;;;;19.40;9.73;;;;;;;;;;4804139;29;20055;-79
2023/04/06 14:49:53;;;;;;;9.77;4.75;;;;;;;;;;4805132;29;20055;-77
2023/04/06 14:52:37;;;;;;;20.33;10.52;;;;;;;;;;4797853;29;20047;-78
2023/04/06 14:55:22;;;;;;;7.05;4.10;;;;;;;;;;4805188;29;20054;-77
2023/04/06 14:58:08;;;;;;;8.82;5.63;;;;;;;;;;4804210;29;20043;-80
2023/04/06 15:00:59;;;;;;;15.50;8.07;;;;;;;;;;4805239;29;20059;-79
2023/04/06 15:03:44;;;;;;;12.00;5.80;;;;;;;;;;4805197;29;20042;-79
2023/04/06 15:06:30;;;;;;;28.77;12.20;;;;;;;;;;4797670;29;20050;-81
2023/04/06 15:09:15;;;;;;;82.05;38.95;;;;;;;;;;4798028;29;20047;-77
2023/04/06 15:12:00;;;;;;;16.65;8.98;;;;;;;;;;4804653;29;20059;-78
2023/04/06 15:14:45;;;;;;;11.90;4.45;;;;;;;;;;4797614;29;20055;-79
2023/04/06 15:17:31;;;;;;;13.98;8.88;;;;;;;;;;4804258;29;20484;-80
2023/04/06 15:20:17;;;;;;;18.75;11.98;;;;;;;;;;4804652;29;20059;-80
2023/04/06 15:23:03;;;;;;;21.40;12.75;;;;;;;;;;4804668;29;20409;-79
2023/04/06 15:25:51;;;;;;;19.05;9.45;;;;;;;;;;4806858;29;20063;-81
2023/04/06 15:28:37;;;;;;;19.77;8.38;;;;;;;;;;4812566;29;20055;-79
2023/04/06 15:31:23;;;;;;;8.63;4.10;;;;;;;;;;4812785;29;20042;-78
2023/04/06 15:34:08;;;;;;;53.80;20.52;;;;;;;;;;4811704;29;20050;-79
2023/04/06 15:36:54;;;;;;;17.67;9.02;;;;;;;;;;4811609;29;20047;-79
2023/04/06 15:39:39;;;;;;;14.50;8.13;;;;;;;;;;4810119;29;20050;-78
2023/04/06 15:42:25;;;;;;;16.55;6.47;;;;;;;;;;4808019;29;20497;-78
2023/04/06 15:45:11;;;;;;;29.17;14.38;;;;;;;;;;4798781;29;20046;-80
2023/04/06 15:47:56;;;;;;;25.13;11.55;;;;;;;;;;4808449;29;20674;-80
2023/04/06 15:50:42;;;;;;;24.83;12.00;;;;;;;;;;4806526;29;20798;-79
2023/04/06 15:53:27;;;;;;;25.40;14.27;;;;;;;;;;4809509;29;20054;-79
2023/04/06 15:56:13;;;;;;;30.20;14.52;;;;;;;;;;4809189;29;20046;-79
2023/04/06 15:58:59;;;;;;;20.90;11.20;;;;;;;;;;4795366;29;20050;-79
2023/04/06 16:01:47;;;;;;;14.05;9.13;;;;;;;;;;4817299;29;20054;-80
2023/04/06 16:04:33;;;;;;;24.17;14.30;;;;;;;;;;4810875;29;20058;-80
2023/04/06 16:07:18;;;;;;;39.88;19.52;;;;;;;;;;4811207;29;20050;-80
2023/04/06 16:10:05;;;;;;;38.35;20.80;;;;;;;;;;4805850;29;20042;-81
2023/04/06 16:12:50;;;;;;;47.20;22.08;;;;;;;;;;4805096;29;20047;-80
2023/04/06 16:15:36;;;;;;;49.15;24.77;;;;;;;;;;4812428;29;20047;-80
2023/04/06 16:18:21;;;;;;;36.20;19.35;;;;;;;;;;4811929;29;20042;-80